createdAt,value
2019-03-02T00:01:00.401Z,95477.42
2019-03-02T00:03:27.892Z,95474.67
2019-03-02T00:05:57.104Z,95476.58
2019-03-02T00:08:25.217Z,95470.75
2019-03-02T00:10:52.945Z,95475.50
2019-03-02T00:13:22.036Z,95480.33
2019-03-02T00:15:49.605Z,95472.78
2019-03-02T00:18:17.046Z,95472.78
2019-03-02T00:20:44.525Z,95485.49
2019-03-02T00:23:12.025Z,95487.80
2019-03-02T00:25:39.466Z,95492.15
2019-03-02T00:28:06.885Z,95489.39
2019-03-02T00:30:34.353Z,95485.59
2019-03-02T00:33:01.818Z,95486.34
2019-03-02T00:35:29.306Z,95489.64
2019-03-02T00:37:56.985Z,95488.39
2019-03-02T00:40:27.133Z,95487.17
2019-03-02T00:42:53.826Z,95483.55
2019-03-02T00:45:21.305Z,95476.60
2019-03-02T00:47:48.764Z,95465.69
2019-03-02T00:50:16.210Z,95463.54
2019-03-02T00:52:43.725Z,95466.89
2019-03-02T00:55:11.304Z,95468.80
2019-03-02T00:57:38.811Z,95474.05
2019-03-02T01:00:07.357Z,95473.75
2019-03-02T01:02:36.802Z,95479.20
2019-03-02T01:05:05.013Z,95463.84
2019-03-02T01:07:32.485Z,95464.38
2019-03-02T01:09:59.971Z,95460.78
2019-03-02T01:12:27.471Z,95460.56
2019-03-02T01:14:54.905Z,95458.27
2019-03-02T01:17:22.526Z,95459.73
2019-03-02T01:19:52.579Z,95463.22
2019-03-02T01:22:19.305Z,95465.98
2019-03-02T01:24:46.788Z,95457.66
2019-03-02T01:27:14.289Z,95454.09
2019-03-02T01:29:41.825Z,95449.47
2019-03-02T01:32:12.661Z,95451.77
2019-03-02T01:34:42.330Z,95454.09
2019-03-02T01:37:09.671Z,95456.14
2019-03-02T01:39:37.205Z,95453.27
2019-03-02T01:42:04.643Z,95450.13
2019-03-02T01:44:32.125Z,95447.28
2019-03-02T01:46:59.645Z,95451.48
2019-03-02T01:49:28.365Z,95449.86
2019-03-02T01:51:58.179Z,95446.23
2019-03-02T01:54:25.167Z,95438.53
2019-03-02T01:56:52.745Z,95441.25
2019-03-02T01:59:20.225Z,95445.69
2019-03-02T02:01:47.705Z,95448.97
2019-03-02T02:04:15.135Z,95450.67
2019-03-02T02:06:42.951Z,95440.42
2019-03-02T02:09:11.175Z,95440.74
2019-03-02T02:11:38.685Z,95444.39
2019-03-02T02:14:06.081Z,95435.94
2019-03-02T02:16:33.547Z,95437.54
2019-03-02T02:19:02.441Z,95451.05
2019-03-02T02:21:30.390Z,95449.20
2019-03-02T02:23:57.865Z,95446.32
2019-03-02T02:26:25.345Z,95438.16
2019-03-02T02:28:52.765Z,95446.45
2019-03-02T02:31:20.218Z,95447.81
2019-03-02T02:33:47.663Z,95442.27
2019-03-02T02:36:18.769Z,95442.19
2019-03-02T02:38:44.445Z,95448.67
2019-03-02T02:41:11.964Z,95445.98
2019-03-02T02:43:39.405Z,95438.82
2019-03-02T02:46:06.831Z,95446.75
2019-03-02T02:48:34.326Z,95448.91
2019-03-02T02:51:04.362Z,95451.97
2019-03-02T02:53:31.123Z,95452.42
2019-03-02T02:55:58.573Z,95445.15
2019-03-02T02:58:26.067Z,95449.21
2019-03-02T03:00:55.200Z,95447.07
2019-03-02T03:03:22.900Z,95443.39
2019-03-02T03:05:53.957Z,95439.28
2019-03-02T03:08:19.681Z,95437.98
2019-03-02T03:10:47.146Z,95437.90
2019-03-02T03:13:14.595Z,95431.67
2019-03-02T03:15:47.247Z,95436.23
2019-03-02T03:18:15.240Z,95433.80
2019-03-02T03:20:47.954Z,95435.16
2019-03-02T03:23:12.269Z,95437.29
2019-03-02T03:25:39.725Z,95432.27
2019-03-02T03:28:07.330Z,95434.86
2019-03-02T03:30:38.350Z,95434.48
2019-03-02T03:33:04.161Z,95431.58
2019-03-02T03:35:32.551Z,95433.00
2019-03-02T03:37:59.998Z,95429.06
2019-03-02T03:40:27.493Z,95430.12
2019-03-02T03:43:02.240Z,95433.86
2019-03-02T03:45:24.346Z,95441.50
2019-03-02T03:47:51.842Z,95443.41
2019-03-02T03:50:19.306Z,95446.31
2019-03-02T03:52:48.957Z,95449.88
2019-03-02T03:55:23.710Z,95448.13
2019-03-02T03:57:45.650Z,95443.41
2019-03-02T04:00:13.988Z,95441.19
2019-03-02T04:02:41.795Z,95434.70
2019-03-02T04:05:10.396Z,95438.45
2019-03-02T04:07:37.867Z,95441.43
2019-03-02T04:10:08.026Z,95442.81
2019-03-02T04:12:35.465Z,95445.40
2019-03-02T04:15:03.276Z,95452.85
2019-03-02T04:17:34.223Z,95457.53
2019-03-02T04:20:00.459Z,95460.34
2019-03-02T04:22:27.924Z,95458.82
2019-03-02T04:25:04.565Z,95462.71
2019-03-02T04:27:32.005Z,95462.55
2019-03-02T04:29:59.445Z,95457.74
2019-03-02T04:32:27.841Z,95454.23
2019-03-02T04:34:57.703Z,95451.64
2019-03-02T04:37:25.425Z,95446.70
2019-03-02T04:39:52.846Z,95451.97
2019-03-02T04:42:20.345Z,95459.58
2019-03-02T04:44:47.845Z,95453.77
2019-03-02T04:47:15.305Z,95458.74
2019-03-02T04:49:42.765Z,95459.41
2019-03-02T04:52:11.504Z,95451.42
2019-03-02T04:54:39.306Z,95455.86
2019-03-02T04:57:06.765Z,95460.34
2019-03-02T04:59:34.235Z,95460.58
2019-03-02T05:02:01.705Z,95456.83
2019-03-02T05:04:32.245Z,95457.28
2019-03-02T05:06:58.564Z,95464.47
2019-03-02T05:09:26.009Z,95469.20
2019-03-02T05:11:53.485Z,95463.84
2019-03-02T05:14:20.975Z,95472.09
2019-03-02T05:16:48.466Z,95469.28
2019-03-02T05:19:15.924Z,95472.01
2019-03-02T05:21:44.326Z,95469.88
2019-03-02T05:24:11.845Z,95470.95
2019-03-02T05:26:39.345Z,95469.20
2019-03-02T05:29:06.805Z,95457.37
2019-03-02T05:31:34.245Z,95466.23
2019-03-02T05:34:04.577Z,95475.81
2019-03-02T05:36:31.074Z,95463.39
2019-03-02T05:38:58.560Z,95466.69
2019-03-02T05:41:26.005Z,95473.68
2019-03-02T05:43:53.465Z,95469.28
2019-03-02T05:46:21.915Z,95471.38
2019-03-02T05:48:49.497Z,95473.09
2019-03-02T05:51:16.945Z,95470.33
2019-03-02T05:53:44.425Z,95469.12
2019-03-02T05:56:11.886Z,95461.05
2019-03-02T05:58:39.405Z,95458.58
2019-03-02T06:01:06.825Z,95464.02
2019-03-02T06:03:34.326Z,95465.23
2019-03-02T06:06:01.825Z,95475.69
2019-03-02T06:08:32.190Z,95476.65
2019-03-02T06:11:01.956Z,95473.92
2019-03-02T06:13:28.271Z,95475.52
2019-03-02T06:15:56.309Z,95480.41
2019-03-02T06:18:23.785Z,95479.41
2019-03-02T06:20:51.584Z,95478.88
2019-03-02T06:23:19.069Z,95472.63
2019-03-02T06:25:46.545Z,95485.05
2019-03-02T06:28:13.945Z,95489.86
2019-03-02T06:30:44.099Z,95490.91
2019-03-02T06:33:10.775Z,95482.16
2019-03-02T06:35:38.212Z,95494.75
2019-03-02T06:38:05.685Z,95493.84
2019-03-02T06:40:33.127Z,95498.69
2019-03-02T06:43:00.586Z,95496.05
2019-03-02T06:45:28.085Z,95496.35
2019-03-02T06:47:55.537Z,95486.66
2019-03-02T06:50:23.089Z,95480.49
2019-03-02T06:52:50.567Z,95481.55
2019-03-02T06:55:20.922Z,95485.22
2019-03-02T06:57:50.172Z,95490.03
2019-03-02T07:00:18.169Z,95490.79
2019-03-02T07:02:45.733Z,95500.62
2019-03-02T07:05:13.426Z,95502.30
2019-03-02T07:07:40.909Z,95497.95
2019-03-02T07:10:11.020Z,95507.19
2019-03-02T07:12:41.845Z,95505.05
2019-03-02T07:15:13.277Z,95508.02
2019-03-02T07:18:07.840Z,95504.80
2019-03-02T07:20:35.987Z,95499.78
2019-03-02T07:23:03.606Z,95494.20
2019-03-02T07:25:31.397Z,95495.80
2019-03-02T07:28:01.855Z,95501.38
2019-03-02T07:30:28.507Z,95505.13
2019-03-02T07:32:56.298Z,95507.48
2019-03-02T07:35:23.765Z,95513.52
2019-03-02T07:37:51.182Z,95511.62
2019-03-02T07:40:18.670Z,95516.05
2019-03-02T07:42:46.111Z,95522.51
2019-03-02T07:45:15.009Z,95515.51
2019-03-02T07:47:42.475Z,95511.37
2019-03-02T07:50:10.276Z,95516.27
2019-03-02T07:52:37.723Z,95520.70
2019-03-02T07:55:05.449Z,95524.12
2019-03-02T07:57:32.902Z,95518.77
2019-03-02T08:00:02.117Z,95519.86
2019-03-02T08:02:30.727Z,95514.96
2019-03-02T08:05:00.036Z,95518.69
2019-03-02T08:07:27.645Z,95513.82
2019-03-02T08:09:55.089Z,95513.03
2019-03-02T08:12:24.879Z,95514.28
2019-03-02T08:14:52.003Z,95512.44
2019-03-02T08:17:19.444Z,95513.56
2019-03-02T08:19:48.546Z,95512.43
2019-03-02T08:22:16.267Z,95512.14
2019-03-02T08:24:44.683Z,95507.23
2019-03-02T08:27:12.182Z,95509.53
2019-03-02T08:29:39.649Z,95511.97
2019-03-02T08:32:07.083Z,95510.88
2019-03-02T08:34:34.538Z,95503.41
2019-03-02T08:37:02.009Z,95506.22
2019-03-02T08:39:29.561Z,95507.66
2019-03-02T08:41:57.105Z,95514.19
2019-03-02T08:44:24.746Z,95511.94
2019-03-02T08:46:52.258Z,95510.62
2019-03-02T08:49:19.990Z,95511.27
2019-03-02T08:51:49.870Z,95514.97
2019-03-02T08:54:17.917Z,95513.96
2019-03-02T08:56:47.741Z,95516.54
2019-03-02T08:59:14.907Z,95511.05
2019-03-02T09:01:42.466Z,95508.98
2019-03-02T09:04:10.168Z,95507.30
2019-03-02T09:06:37.833Z,95504.02
2019-03-02T09:09:06.749Z,95500.12
2019-03-02T09:11:34.182Z,95502.48
2019-03-02T09:14:01.640Z,95506.20
2019-03-02T09:16:29.502Z,95499.34
2019-03-02T09:18:56.959Z,95502.90
2019-03-02T09:21:24.487Z,95505.03
2019-03-02T09:23:54.378Z,95500.12
2019-03-02T09:26:22.015Z,95498.27
2019-03-02T09:28:51.951Z,95496.31
2019-03-02T09:31:25.906Z,95498.15
2019-03-02T09:33:48.319Z,95502.95
2019-03-02T09:36:15.819Z,95493.75
2019-03-02T09:38:43.328Z,95497.78
2019-03-02T09:41:11.670Z,95502.63
2019-03-02T09:43:39.335Z,95498.20
2019-03-02T09:46:07.549Z,95498.77
2019-03-02T09:48:35.926Z,95496.21
2019-03-02T09:51:03.964Z,95497.16
2019-03-02T09:53:31.836Z,95494.77
2019-03-02T09:55:59.823Z,95489.63
2019-03-02T09:58:27.332Z,95492.64
2019-03-02T10:00:56.808Z,95491.91
2019-03-02T10:03:26.707Z,95492.36
2019-03-02T10:05:53.788Z,95491.38
2019-03-02T10:08:21.469Z,95490.94
2019-03-02T10:10:48.943Z,95493.53
2019-03-02T10:13:16.400Z,95490.97
2019-03-02T10:15:44.041Z,95488.85
2019-03-02T10:18:13.887Z,95491.26
2019-03-02T10:20:42.619Z,95489.81
2019-03-02T10:23:10.336Z,95489.70
2019-03-02T10:25:37.813Z,95488.79
2019-03-02T10:28:07.373Z,95494.05
2019-03-02T10:30:34.954Z,95490.63
2019-03-02T10:33:02.388Z,95493.73
2019-03-02T10:35:30.526Z,95489.53
2019-03-02T10:37:58.105Z,95493.68
2019-03-02T10:40:25.603Z,95489.29
2019-03-02T10:42:53.276Z,95488.57
2019-03-02T10:45:21.652Z,95487.88
2019-03-02T10:47:49.247Z,95489.95
2019-03-02T10:50:19.651Z,95487.10
2019-03-02T10:52:48.947Z,95486.75
2019-03-02T10:55:18.107Z,95485.16
2019-03-02T10:57:45.788Z,95489.87
2019-03-02T11:00:17.872Z,95486.69
2019-03-02T11:02:45.494Z,95495.53
2019-03-02T11:05:48.559Z,95485.42
2019-03-02T11:08:44.612Z,95492.92
2019-03-02T11:11:29.782Z,95475.30
2019-03-02T11:14:27.781Z,95468.55
2019-03-02T11:17:13.580Z,95472.17
2019-03-02T11:20:03.706Z,95468.69
2019-03-02T11:22:41.754Z,95471.11
2019-03-02T11:25:25.650Z,95469.91
2019-03-02T11:27:58.881Z,95470.75
2019-03-02T11:30:57.829Z,95470.06
2019-03-02T11:33:43.729Z,95467.93
2019-03-02T11:36:39.667Z,95467.85
2019-03-02T11:39:37.939Z,95466.41
2019-03-02T11:42:14.064Z,95460.58
2019-03-02T11:45:03.969Z,95460.95
2019-03-02T11:47:50.949Z,95456.80
2019-03-02T11:50:24.238Z,95449.81
2019-03-02T11:53:02.999Z,95456.63
2019-03-02T11:55:42.279Z,95443.80
2019-03-02T11:58:41.316Z,95448.44
2019-03-02T12:01:30.044Z,95440.30
2019-03-02T12:04:19.546Z,95438.89
2019-03-02T12:07:13.251Z,95437.71
2019-03-02T12:10:06.435Z,95439.62
2019-03-02T12:12:56.719Z,95443.00
2019-03-02T12:15:33.970Z,95436.58
2019-03-02T12:18:16.426Z,95436.69
2019-03-02T12:21:03.184Z,95438.97
2019-03-02T12:23:49.251Z,95435.66
2019-03-02T12:26:36.184Z,95430.95
2019-03-02T12:29:26.687Z,95433.98
2019-03-02T12:32:07.576Z,95435.12
2019-03-02T12:34:46.911Z,95438.47
2019-03-02T12:37:39.638Z,95430.00
2019-03-02T12:40:36.316Z,95427.95
2019-03-02T12:43:21.837Z,95421.17
2019-03-02T12:46:05.498Z,95418.20
2019-03-02T12:49:06.957Z,95414.67
2019-03-02T12:51:53.007Z,95406.20
2019-03-02T12:54:39.280Z,95406.39
2019-03-02T12:57:29.446Z,95398.75
2019-03-02T13:00:19.487Z,95400.62
2019-03-02T13:03:15.508Z,95401.53
2019-03-02T13:05:57.479Z,95403.67
2019-03-02T13:08:46.792Z,95399.23
2019-03-02T13:11:32.754Z,95400.06
2019-03-02T13:14:07.602Z,95393.27
2019-03-02T13:17:06.825Z,95393.82
2019-03-02T13:19:39.651Z,95384.72
2019-03-02T13:22:32.819Z,95388.73
2019-03-02T13:25:22.499Z,95384.26
2019-03-02T13:28:19.796Z,95384.52
2019-03-02T13:31:15.714Z,95386.20
2019-03-02T13:34:19.974Z,95382.02
2019-03-02T13:36:56.424Z,95378.11
2019-03-02T13:39:51.221Z,95381.81
2019-03-02T13:42:37.955Z,95383.98
2019-03-02T13:45:23.115Z,95386.30
2019-03-02T13:48:22.233Z,95387.22
2019-03-02T13:51:13.967Z,95390.00
2019-03-02T13:53:53.602Z,95390.56
2019-03-02T13:56:47.174Z,95387.97
2019-03-02T13:59:41.285Z,95393.00
2019-03-02T14:02:28.535Z,95390.30
2019-03-02T14:05:14.476Z,95391.60
2019-03-02T14:08:13.805Z,95387.80
2019-03-02T14:11:07.315Z,95387.70
2019-03-02T14:14:09.438Z,95381.58
2019-03-02T14:16:57.517Z,95379.78
2019-03-02T14:19:50.507Z,95379.98
2019-03-02T14:22:41.150Z,95372.06
2019-03-02T14:25:25.932Z,95379.24
2019-03-02T14:28:30.702Z,95374.58
2019-03-02T14:31:03.590Z,95375.41
2019-03-02T14:34:03.007Z,95375.80
2019-03-02T14:36:37.811Z,95368.59
2019-03-02T14:39:25.530Z,95369.53
2019-03-02T14:42:03.983Z,95367.22
2019-03-02T14:44:38.810Z,95369.06
2019-03-02T14:47:28.825Z,95370.10
2019-03-02T14:50:15.969Z,95372.27
2019-03-02T14:53:06.189Z,95367.05
2019-03-02T14:55:51.070Z,95362.31
2019-03-02T14:58:37.716Z,95362.20
2019-03-02T15:01:24.287Z,95360.41
2019-03-02T15:04:26.885Z,95362.58
2019-03-02T15:07:13.286Z,95354.92
2019-03-02T15:09:59.384Z,95357.65
2019-03-02T15:12:48.472Z,95353.80
2019-03-02T15:15:38.991Z,95349.70
2019-03-02T15:18:29.056Z,95348.85
2019-03-02T15:21:13.540Z,95348.48
2019-03-02T15:24:00.986Z,95349.88
2019-03-02T15:26:51.239Z,95351.41
2019-03-02T15:29:37.378Z,95362.85
2019-03-02T15:32:34.394Z,95357.80
2019-03-02T15:35:49.630Z,95358.30
2019-03-02T15:38:51.918Z,95360.08
2019-03-02T15:41:28.186Z,95360.89
2019-03-02T15:44:18.589Z,95364.79
2019-03-02T15:47:06.167Z,95364.16
2019-03-02T15:49:53.124Z,95365.83
2019-03-02T15:52:26.666Z,95364.17
2019-03-02T15:55:12.938Z,95361.95
2019-03-02T15:57:56.019Z,95369.30
2019-03-02T16:00:58.364Z,95374.22
2019-03-02T16:03:53.250Z,95370.30
2019-03-02T16:06:31.216Z,95371.70
2019-03-02T16:09:21.208Z,95383.03
2019-03-02T16:11:56.350Z,95380.42
2019-03-02T16:14:32.730Z,95379.58
2019-03-02T16:17:17.587Z,95385.94
2019-03-02T16:20:06.464Z,95381.73
2019-03-02T16:22:53.989Z,95392.42
2019-03-02T16:25:50.061Z,95385.73
2019-03-02T16:28:38.923Z,95384.16
2019-03-02T16:31:16.979Z,95392.06
2019-03-02T16:33:56.590Z,95399.03
2019-03-02T16:36:59.111Z,95394.11
2019-03-02T16:39:47.079Z,95398.63
2019-03-02T16:42:40.362Z,95395.34
2019-03-02T16:45:27.027Z,95392.74
2019-03-02T16:48:24.958Z,95390.32
2019-03-02T16:51:18.492Z,95396.87
2019-03-02T16:54:06.223Z,95404.70
2019-03-02T16:57:05.559Z,95406.41
2019-03-02T16:59:46.047Z,95410.31
2019-03-02T17:02:45.837Z,95406.33
2019-03-02T17:05:32.701Z,95409.20
2019-03-02T17:08:31.214Z,95413.84
2019-03-02T17:11:18.591Z,95417.16
2019-03-02T17:14:15.258Z,95421.22
2019-03-02T17:17:11.924Z,95434.64
2019-03-02T17:19:51.445Z,95438.43
2019-03-02T17:22:23.637Z,95442.14
2019-03-02T17:25:01.321Z,95444.38
2019-03-02T17:27:38.515Z,95447.76
2019-03-02T17:30:17.801Z,95444.97
2019-03-02T17:32:58.384Z,95445.95
2019-03-02T17:35:34.219Z,95446.87
2019-03-02T17:38:24.278Z,95438.14
2019-03-02T17:41:15.004Z,95436.62
2019-03-02T17:43:52.767Z,95443.48
2019-03-02T17:46:32.076Z,95452.82
2019-03-02T17:49:28.799Z,95454.77
2019-03-02T17:52:12.913Z,95454.28
2019-03-02T17:55:04.470Z,95457.98
2019-03-02T17:57:54.422Z,95457.84
2019-03-02T18:00:53.194Z,95458.87
2019-03-02T18:03:55.966Z,95458.39
2019-03-02T18:06:37.359Z,95463.36
2019-03-02T18:09:28.864Z,95473.11
2019-03-02T18:12:29.080Z,95474.98
2019-03-02T18:15:10.794Z,95474.77
2019-03-02T18:18:10.766Z,95476.69
2019-03-02T18:20:38.751Z,95477.09
2019-03-02T18:23:06.883Z,95477.69
2019-03-02T18:25:36.092Z,95483.58
2019-03-02T18:28:04.671Z,95484.81
2019-03-02T18:30:32.864Z,95491.83
2019-03-02T18:33:12.650Z,95484.70
2019-03-02T18:35:41.914Z,95487.63
2019-03-02T18:38:12.637Z,95494.42
2019-03-02T18:40:41.645Z,95487.66
2019-03-02T18:43:09.780Z,95497.43
2019-03-02T18:45:39.613Z,95493.01
2019-03-02T18:48:17.608Z,95498.97
2019-03-02T18:50:57.620Z,95503.37
2019-03-02T18:53:28.895Z,95500.51
2019-03-02T18:55:57.913Z,95492.98
2019-03-02T18:58:27.547Z,95496.39
2019-03-02T19:00:57.681Z,95503.37
2019-03-02T19:03:25.984Z,95508.86
2019-03-02T19:05:53.920Z,95507.71
2019-03-02T19:08:22.030Z,95505.33
2019-03-02T19:10:50.505Z,95509.39
2019-03-02T19:13:18.789Z,95512.20
2019-03-02T19:15:53.515Z,95509.59
2019-03-02T19:18:16.935Z,95515.38
2019-03-02T19:20:45.925Z,95522.27
2019-03-02T19:23:14.187Z,95524.33
2019-03-02T19:25:43.474Z,95527.77
2019-03-02T19:28:11.561Z,95527.64
2019-03-02T19:30:39.766Z,95523.58
2019-03-02T19:33:10.197Z,95531.28
2019-03-02T19:35:38.286Z,95527.47
2019-03-02T19:38:06.395Z,95534.87
2019-03-02T19:40:34.521Z,95530.45
2019-03-02T19:43:02.974Z,95528.11
2019-03-02T19:45:31.755Z,95537.65
2019-03-02T19:48:02.165Z,95539.45
2019-03-02T19:50:30.489Z,95541.30
2019-03-02T19:52:58.640Z,95552.76
2019-03-02T19:55:26.693Z,95547.41
2019-03-02T19:57:54.801Z,95548.86
2019-03-02T20:00:25.413Z,95551.88
2019-03-02T20:02:53.456Z,95556.11
2019-03-02T20:05:21.515Z,95554.88
2019-03-02T20:07:49.713Z,95564.84
2019-03-02T20:10:23.088Z,95565.45
2019-03-02T20:12:51.240Z,95558.22
2019-03-02T20:15:19.559Z,95569.89
2019-03-02T20:17:48.312Z,95571.38
2019-03-02T20:20:16.750Z,95568.34
2019-03-02T20:22:45.087Z,95576.12
2019-03-02T20:25:13.776Z,95577.34
2019-03-02T20:27:42.635Z,95578.48
2019-03-02T20:30:13.325Z,95575.23
2019-03-02T20:32:41.425Z,95575.03
2019-03-02T20:35:12.164Z,95579.98
2019-03-02T20:37:40.367Z,95577.49
2019-03-02T20:40:11.007Z,95582.20
2019-03-02T20:42:39.155Z,95582.91
2019-03-02T20:45:09.498Z,95581.95
2019-03-02T20:47:37.665Z,95582.91
2019-03-02T20:50:06.243Z,95589.44
2019-03-02T20:52:34.367Z,95586.91
2019-03-02T20:55:02.527Z,95586.25
2019-03-02T20:57:30.601Z,95592.11
2019-03-02T20:59:58.706Z,95585.69
2019-03-02T21:02:26.823Z,95587.16
2019-03-02T21:04:54.941Z,95584.13
2019-03-02T21:07:23.013Z,95587.28
2019-03-02T21:09:51.578Z,95585.59
2019-03-02T21:12:19.803Z,95591.02
2019-03-02T21:14:47.833Z,95597.49
2019-03-02T21:17:15.841Z,95603.63
2019-03-02T21:19:43.964Z,95613.38
2019-03-02T21:22:12.178Z,95614.53
2019-03-02T21:24:40.208Z,95604.35
2019-03-02T21:27:08.307Z,95607.52
2019-03-02T21:29:36.395Z,95611.44
2019-03-02T21:32:04.421Z,95617.37
2019-03-02T21:34:32.515Z,95620.28
2019-03-02T21:37:00.537Z,95617.87
2019-03-02T21:39:28.605Z,95616.55
2019-03-02T21:41:57.023Z,95614.75
2019-03-02T21:44:25.091Z,95619.58
2019-03-02T21:46:53.156Z,95626.42
2019-03-02T21:49:21.303Z,95620.28
2019-03-02T21:51:49.276Z,95631.69
2019-03-02T21:54:17.283Z,95636.72
2019-03-02T21:56:45.883Z,95641.84
2019-03-02T21:59:13.711Z,95644.44
2019-03-02T22:01:41.778Z,95642.13
2019-03-02T22:04:09.597Z,95644.05
2019-03-02T22:06:37.488Z,95650.05
2019-03-02T22:09:07.130Z,95656.45
2019-03-02T22:11:35.509Z,95649.80
2019-03-02T22:14:03.520Z,95651.05
2019-03-02T22:16:31.258Z,95650.38
2019-03-02T22:18:58.814Z,95650.69
2019-03-02T22:21:26.415Z,95651.23
2019-03-02T22:23:53.949Z,95657.52
2019-03-02T22:26:21.573Z,95661.33
2019-03-02T22:28:49.150Z,95668.11
2019-03-02T22:31:16.632Z,95664.77
2019-03-02T22:33:44.210Z,95661.83
2019-03-02T22:36:11.795Z,95661.83
2019-03-02T22:38:39.269Z,95669.27
2019-03-02T22:41:06.851Z,95669.13
2019-03-02T22:43:34.315Z,95670.35
2019-03-02T22:46:01.892Z,95676.94
2019-03-02T22:48:29.453Z,95681.75
2019-03-02T22:50:56.969Z,95685.98
2019-03-02T22:53:24.490Z,95687.98
2019-03-02T22:55:52.033Z,95681.44
2019-03-02T22:58:19.541Z,95669.27
2019-03-02T23:01:31.968Z,95669.33
2019-03-02T23:03:59.791Z,95670.31
2019-03-02T23:06:27.317Z,95674.59
2019-03-02T23:08:54.856Z,95677.77
2019-03-02T23:11:22.430Z,95678.70
2019-03-02T23:13:49.909Z,95675.95
2019-03-02T23:16:17.426Z,95667.52
2019-03-02T23:18:44.878Z,95662.73
2019-03-02T23:21:12.370Z,95669.63
2019-03-02T23:23:39.872Z,95672.40
2019-03-02T23:26:07.340Z,95668.20
2019-03-02T23:28:34.810Z,95663.39
2019-03-02T23:31:02.363Z,95662.77
2019-03-02T23:33:30.030Z,95665.91
2019-03-02T23:35:57.513Z,95671.77
2019-03-02T23:38:24.959Z,95669.70
2019-03-02T23:40:52.389Z,95660.22
2019-03-02T23:43:19.830Z,95662.13
2019-03-02T23:45:47.434Z,95655.41
2019-03-02T23:48:17.249Z,95644.84
2019-03-02T23:50:44.690Z,95650.16
2019-03-02T23:53:12.205Z,95652.06
2019-03-02T23:55:39.989Z,95662.80
2019-03-02T23:58:08.559Z,95659.62
